sensor_id;sensor_type;location;lat;lon;timestamp;P1;durP1;ratioP1;P2;durP2;ratioP2
83176;SDS011;73074;52.006;4.704;2024-03-08T00:03:55;25.50;;;9.07;;
83176;SDS011;73074;52.006;4.704;2024-03-08T00:08:58;22.50;;;9.02;;
83176;SDS011;73074;52.006;4.704;2024-03-08T00:13:59;32.47;;;12.57;;
83176;SDS011;73074;52.006;4.704;2024-03-08T00:19:04;26.15;;;11.30;;
83176;SDS011;73074;52.006;4.704;2024-03-08T00:24:06;25.38;;;12.52;;
83176;SDS011;73074;52.006;4.704;2024-03-08T00:29:07;21.00;;;10.80;;
83176;SDS011;73074;52.006;4.704;2024-03-08T00:34:08;22.02;;;9.27;;
83176;SDS011;73074;52.006;4.704;2024-03-08T00:39:10;25.52;;;10.90;;
83176;SDS011;73074;52.006;4.704;2024-03-08T00:44:11;30.27;;;11.07;;
83176;SDS011;73074;52.006;4.704;2024-03-08T00:49:11;22.02;;;9.63;;
83176;SDS011;73074;52.006;4.704;2024-03-08T00:54:12;25.10;;;10.88;;
83176;SDS011;73074;52.006;4.704;2024-03-08T01:04:25;29.02;;;11.50;;
83176;SDS011;73074;52.006;4.704;2024-03-08T01:09:27;23.40;;;11.07;;
83176;SDS011;73074;52.006;4.704;2024-03-08T01:14:28;25.38;;;11.77;;
83176;SDS011;73074;52.006;4.704;2024-03-08T01:19:34;29.02;;;10.25;;
83176;SDS011;73074;52.006;4.704;2024-03-08T01:24:34;28.95;;;11.00;;
83176;SDS011;73074;52.006;4.704;2024-03-08T01:29:35;25.05;;;10.13;;
83176;SDS011;73074;52.006;4.704;2024-03-08T01:34:38;26.15;;;11.60;;
83176;SDS011;73074;52.006;4.704;2024-03-08T01:39:38;26.88;;;11.38;;
83176;SDS011;73074;52.006;4.704;2024-03-08T01:44:40;27.42;;;11.40;;
83176;SDS011;73074;52.006;4.704;2024-03-08T01:49:40;24.17;;;11.00;;
83176;SDS011;73074;52.006;4.704;2024-03-08T01:54:41;24.23;;;10.65;;
83176;SDS011;73074;52.006;4.704;2024-03-08T01:59:45;23.13;;;10.20;;
83176;SDS011;73074;52.006;4.704;2024-03-08T02:04:46;24.48;;;9.85;;
83176;SDS011;73074;52.006;4.704;2024-03-08T02:09:47;21.95;;;11.35;;
83176;SDS011;73074;52.006;4.704;2024-03-08T02:14:48;24.60;;;10.05;;
83176;SDS011;73074;52.006;4.704;2024-03-08T02:19:49;27.17;;;10.73;;
83176;SDS011;73074;52.006;4.704;2024-03-08T02:24:50;23.80;;;10.73;;
83176;SDS011;73074;52.006;4.704;2024-03-08T02:29:52;29.05;;;12.13;;
83176;SDS011;73074;52.006;4.704;2024-03-08T02:34:58;20.77;;;11.32;;
83176;SDS011;73074;52.006;4.704;2024-03-08T02:39:58;19.55;;;9.40;;
83176;SDS011;73074;52.006;4.704;2024-03-08T02:44:59;21.20;;;10.48;;
83176;SDS011;73074;52.006;4.704;2024-03-08T02:50:00;25.73;;;10.25;;
83176;SDS011;73074;52.006;4.704;2024-03-08T02:55:01;25.55;;;12.68;;
83176;SDS011;73074;52.006;4.704;2024-03-08T03:00:03;24.58;;;10.25;;
83176;SDS011;73074;52.006;4.704;2024-03-08T03:05:04;27.58;;;12.10;;
83176;SDS011;73074;52.006;4.704;2024-03-08T03:10:05;24.95;;;11.27;;
83176;SDS011;73074;52.006;4.704;2024-03-08T03:15:06;23.45;;;11.30;;
83176;SDS011;73074;52.006;4.704;2024-03-08T03:20:07;22.33;;;10.02;;
83176;SDS011;73074;52.006;4.704;2024-03-08T03:25:08;22.98;;;11.48;;
83176;SDS011;73074;52.006;4.704;2024-03-08T03:30:12;22.48;;;11.07;;
83176;SDS011;73074;52.006;4.704;2024-03-08T03:35:14;22.50;;;11.80;;
83176;SDS011;73074;52.006;4.704;2024-03-08T03:40:14;22.60;;;9.85;;
83176;SDS011;73074;52.006;4.704;2024-03-08T03:45:15;29.83;;;12.43;;
83176;SDS011;73074;52.006;4.704;2024-03-08T03:50:16;24.13;;;11.18;;
83176;SDS011;73074;52.006;4.704;2024-03-08T03:55:18;25.50;;;11.65;;
83176;SDS011;73074;52.006;4.704;2024-03-08T04:00:19;24.30;;;11.20;;
83176;SDS011;73074;52.006;4.704;2024-03-08T04:05:20;24.98;;;12.00;;
83176;SDS011;73074;52.006;4.704;2024-03-08T04:10:21;22.27;;;11.88;;
83176;SDS011;73074;52.006;4.704;2024-03-08T04:15:23;24.90;;;11.38;;
83176;SDS011;73074;52.006;4.704;2024-03-08T04:20:24;25.60;;;12.63;;
83176;SDS011;73074;52.006;4.704;2024-03-08T04:25:25;29.30;;;12.40;;
83176;SDS011;73074;52.006;4.704;2024-03-08T04:30:31;26.98;;;13.25;;
83176;SDS011;73074;52.006;4.704;2024-03-08T04:35:32;26.88;;;12.68;;
83176;SDS011;73074;52.006;4.704;2024-03-08T04:40:36;24.65;;;11.40;;
83176;SDS011;73074;52.006;4.704;2024-03-08T04:45:36;22.48;;;11.32;;
83176;SDS011;73074;52.006;4.704;2024-03-08T04:50:40;26.45;;;13.77;;
83176;SDS011;73074;52.006;4.704;2024-03-08T04:55:40;22.92;;;12.10;;
83176;SDS011;73074;52.006;4.704;2024-03-08T05:00:41;24.95;;;10.55;;
83176;SDS011;73074;52.006;4.704;2024-03-08T05:05:42;26.65;;;11.73;;
83176;SDS011;73074;52.006;4.704;2024-03-08T05:10:43;26.63;;;12.38;;
83176;SDS011;73074;52.006;4.704;2024-03-08T05:15:50;28.50;;;12.18;;
83176;SDS011;73074;52.006;4.704;2024-03-08T05:20:51;25.90;;;12.23;;
83176;SDS011;73074;52.006;4.704;2024-03-08T05:25:58;25.90;;;12.60;;
83176;SDS011;73074;52.006;4.704;2024-03-08T05:30:59;23.05;;;9.77;;
83176;SDS011;73074;52.006;4.704;2024-03-08T05:36:10;30.02;;;12.68;;
83176;SDS011;73074;52.006;4.704;2024-03-08T05:41:11;23.80;;;11.98;;
83176;SDS011;73074;52.006;4.704;2024-03-08T05:46:15;21.27;;;12.13;;
83176;SDS011;73074;52.006;4.704;2024-03-08T05:51:16;27.13;;;12.50;;
83176;SDS011;73074;52.006;4.704;2024-03-08T05:56:17;22.23;;;10.88;;
83176;SDS011;73074;52.006;4.704;2024-03-08T06:01:17;20.60;;;10.98;;
83176;SDS011;73074;52.006;4.704;2024-03-08T06:06:21;25.92;;;12.50;;
83176;SDS011;73074;52.006;4.704;2024-03-08T06:11:25;31.75;;;12.50;;
83176;SDS011;73074;52.006;4.704;2024-03-08T06:16:28;24.70;;;11.90;;
83176;SDS011;73074;52.006;4.704;2024-03-08T06:21:29;22.02;;;10.55;;
83176;SDS011;73074;52.006;4.704;2024-03-08T06:26:33;26.65;;;13.07;;
83176;SDS011;73074;52.006;4.704;2024-03-08T06:31:34;25.33;;;11.90;;
83176;SDS011;73074;52.006;4.704;2024-03-08T06:36:35;28.77;;;12.73;;
83176;SDS011;73074;52.006;4.704;2024-03-08T06:41:38;28.27;;;13.88;;
83176;SDS011;73074;52.006;4.704;2024-03-08T06:46:41;23.52;;;11.95;;
83176;SDS011;73074;52.006;4.704;2024-03-08T06:57:04;28.40;;;12.90;;
83176;SDS011;73074;52.006;4.704;2024-03-08T07:02:05;24.55;;;12.30;;
83176;SDS011;73074;52.006;4.704;2024-03-08T07:07:06;26.50;;;12.85;;
83176;SDS011;73074;52.006;4.704;2024-03-08T07:12:07;24.75;;;12.82;;
83176;SDS011;73074;52.006;4.704;2024-03-08T07:17:08;27.05;;;13.18;;
83176;SDS011;73074;52.006;4.704;2024-03-08T07:22:08;27.70;;;12.68;;
83176;SDS011;73074;52.006;4.704;2024-03-08T07:27:09;25.17;;;13.43;;
83176;SDS011;73074;52.006;4.704;2024-03-08T07:32:10;26.20;;;14.13;;
83176;SDS011;73074;52.006;4.704;2024-03-08T07:37:25;24.10;;;12.30;;
83176;SDS011;73074;52.006;4.704;2024-03-08T07:42:26;22.25;;;11.85;;
83176;SDS011;73074;52.006;4.704;2024-03-08T07:47:27;27.85;;;12.68;;
83176;SDS011;73074;52.006;4.704;2024-03-08T07:52:28;28.15;;;12.18;;
83176;SDS011;73074;52.006;4.704;2024-03-08T07:57:32;28.20;;;11.70;;
83176;SDS011;73074;52.006;4.704;2024-03-08T08:02:47;25.48;;;12.40;;
83176;SDS011;73074;52.006;4.704;2024-03-08T08:07:48;25.55;;;12.48;;
83176;SDS011;73074;52.006;4.704;2024-03-08T08:12:49;24.20;;;12.13;;
83176;SDS011;73074;52.006;4.704;2024-03-08T08:17:52;20.20;;;9.70;;
83176;SDS011;73074;52.006;4.704;2024-03-08T08:22:53;22.92;;;11.82;;
83176;SDS011;73074;52.006;4.704;2024-03-08T08:27:54;31.67;;;14.10;;
83176;SDS011;73074;52.006;4.704;2024-03-08T08:32:55;22.60;;;11.70;;
83176;SDS011;73074;52.006;4.704;2024-03-08T08:37:58;25.50;;;12.73;;
83176;SDS011;73074;52.006;4.704;2024-03-08T08:42:59;27.80;;;13.18;;
83176;SDS011;73074;52.006;4.704;2024-03-08T08:48:13;27.08;;;12.40;;
83176;SDS011;73074;52.006;4.704;2024-03-08T08:53:15;25.42;;;11.52;;
83176;SDS011;73074;52.006;4.704;2024-03-08T08:58:16;23.00;;;11.80;;
83176;SDS011;73074;52.006;4.704;2024-03-08T09:03:18;25.92;;;13.43;;
83176;SDS011;73074;52.006;4.704;2024-03-08T09:08:18;27.20;;;11.82;;
83176;SDS011;73074;52.006;4.704;2024-03-08T09:13:19;23.05;;;12.57;;
83176;SDS011;73074;52.006;4.704;2024-03-08T09:18:20;23.75;;;12.25;;
83176;SDS011;73074;52.006;4.704;2024-03-08T09:23:23;23.15;;;12.32;;
83176;SDS011;73074;52.006;4.704;2024-03-08T09:28:24;28.02;;;14.02;;
83176;SDS011;73074;52.006;4.704;2024-03-08T09:33:25;24.75;;;12.60;;
83176;SDS011;73074;52.006;4.704;2024-03-08T09:38:26;30.85;;;13.18;;
83176;SDS011;73074;52.006;4.704;2024-03-08T09:43:27;25.42;;;12.43;;
83176;SDS011;73074;52.006;4.704;2024-03-08T09:48:28;22.77;;;12.02;;
83176;SDS011;73074;52.006;4.704;2024-03-08T09:53:29;22.15;;;12.25;;
83176;SDS011;73074;52.006;4.704;2024-03-08T09:58:30;23.73;;;12.88;;
83176;SDS011;73074;52.006;4.704;2024-03-08T10:03:31;22.67;;;11.90;;
83176;SDS011;73074;52.006;4.704;2024-03-08T10:08:32;25.55;;;12.52;;
83176;SDS011;73074;52.006;4.704;2024-03-08T10:13:38;23.85;;;12.63;;
83176;SDS011;73074;52.006;4.704;2024-03-08T10:18:39;22.27;;;12.02;;
83176;SDS011;73074;52.006;4.704;2024-03-08T10:23:42;25.58;;;12.02;;
83176;SDS011;73074;52.006;4.704;2024-03-08T10:28:44;25.25;;;12.52;;
83176;SDS011;73074;52.006;4.704;2024-03-08T10:33:47;24.23;;;12.63;;
83176;SDS011;73074;52.006;4.704;2024-03-08T10:38:49;24.10;;;11.75;;
83176;SDS011;73074;52.006;4.704;2024-03-08T10:48:57;19.77;;;10.90;;
83176;SDS011;73074;52.006;4.704;2024-03-08T10:53:59;21.90;;;10.15;;
83176;SDS011;73074;52.006;4.704;2024-03-08T10:59:00;22.27;;;12.35;;
83176;SDS011;73074;52.006;4.704;2024-03-08T11:04:03;19.73;;;10.60;;
83176;SDS011;73074;52.006;4.704;2024-03-08T11:19:48;20.65;;;12.00;;
83176;SDS011;73074;52.006;4.704;2024-03-08T11:24:53;21.83;;;14.50;;
83176;SDS011;73074;52.006;4.704;2024-03-08T11:29:59;17.65;;;12.15;;
83176;SDS011;73074;52.006;4.704;2024-03-08T11:35:00;19.10;;;13.10;;
83176;SDS011;73074;52.006;4.704;2024-03-08T11:40:01;18.27;;;11.85;;
83176;SDS011;73074;52.006;4.704;2024-03-08T11:45:07;18.33;;;12.25;;
83176;SDS011;73074;52.006;4.704;2024-03-08T11:50:10;16.98;;;13.20;;
83176;SDS011;73074;52.006;4.704;2024-03-08T11:55:14;18.05;;;12.10;;
83176;SDS011;73074;52.006;4.704;2024-03-08T12:00:19;18.38;;;13.70;;
83176;SDS011;73074;52.006;4.704;2024-03-08T12:05:22;17.15;;;11.65;;
83176;SDS011;73074;52.006;4.704;2024-03-08T12:10:32;20.75;;;13.18;;
83176;SDS011;73074;52.006;4.704;2024-03-08T12:15:46;18.40;;;11.95;;
83176;SDS011;73074;52.006;4.704;2024-03-08T12:20:47;16.52;;;12.18;;
83176;SDS011;73074;52.006;4.704;2024-03-08T12:25:47;15.80;;;11.20;;
83176;SDS011;73074;52.006;4.704;2024-03-08T12:30:49;18.48;;;12.27;;
83176;SDS011;73074;52.006;4.704;2024-03-08T12:35:53;18.55;;;12.18;;
83176;SDS011;73074;52.006;4.704;2024-03-08T12:41:00;18.73;;;12.00;;
83176;SDS011;73074;52.006;4.704;2024-03-08T12:46:10;19.67;;;12.45;;
83176;SDS011;73074;52.006;4.704;2024-03-08T12:51:11;20.25;;;12.45;;
83176;SDS011;73074;52.006;4.704;2024-03-08T12:56:12;19.95;;;12.40;;
83176;SDS011;73074;52.006;4.704;2024-03-08T13:01:15;19.25;;;13.25;;
83176;SDS011;73074;52.006;4.704;2024-03-08T13:06:16;19.75;;;12.77;;
83176;SDS011;73074;52.006;4.704;2024-03-08T13:11:17;18.85;;;12.15;;
83176;SDS011;73074;52.006;4.704;2024-03-08T13:16:18;18.75;;;12.25;;
83176;SDS011;73074;52.006;4.704;2024-03-08T13:21:19;17.52;;;12.38;;
83176;SDS011;73074;52.006;4.704;2024-03-08T13:26:22;19.75;;;13.68;;
83176;SDS011;73074;52.006;4.704;2024-03-08T13:31:23;18.45;;;11.63;;
83176;SDS011;73074;52.006;4.704;2024-03-08T13:36:24;17.83;;;12.20;;
83176;SDS011;73074;52.006;4.704;2024-03-08T13:41:32;19.92;;;12.13;;
83176;SDS011;73074;52.006;4.704;2024-03-08T13:46:33;17.00;;;11.77;;
83176;SDS011;73074;52.006;4.704;2024-03-08T13:51:36;16.67;;;11.45;;
83176;SDS011;73074;52.006;4.704;2024-03-08T13:56:55;20.08;;;11.48;;
83176;SDS011;73074;52.006;4.704;2024-03-08T14:02:14;17.73;;;11.05;;
83176;SDS011;73074;52.006;4.704;2024-03-08T14:07:15;17.65;;;12.68;;
83176;SDS011;73074;52.006;4.704;2024-03-08T14:12:19;18.05;;;12.00;;
83176;SDS011;73074;52.006;4.704;2024-03-08T14:17:20;18.50;;;12.30;;
83176;SDS011;73074;52.006;4.704;2024-03-08T14:22:21;18.15;;;12.07;;
83176;SDS011;73074;52.006;4.704;2024-03-08T14:27:27;17.58;;;12.80;;
83176;SDS011;73074;52.006;4.704;2024-03-08T14:32:36;18.73;;;13.35;;
83176;SDS011;73074;52.006;4.704;2024-03-08T14:37:37;19.38;;;12.02;;
83176;SDS011;73074;52.006;4.704;2024-03-08T14:42:41;18.05;;;12.50;;
83176;SDS011;73074;52.006;4.704;2024-03-08T14:47:42;20.23;;;12.00;;
83176;SDS011;73074;52.006;4.704;2024-03-08T14:52:43;18.17;;;11.40;;
83176;SDS011;73074;52.006;4.704;2024-03-08T14:57:51;17.63;;;11.38;;
83176;SDS011;73074;52.006;4.704;2024-03-08T15:02:55;18.25;;;10.95;;
83176;SDS011;73074;52.006;4.704;2024-03-08T15:07:56;19.15;;;11.75;;
83176;SDS011;73074;52.006;4.704;2024-03-08T15:12:59;19.52;;;11.93;;
83176;SDS011;73074;52.006;4.704;2024-03-08T15:18:01;22.05;;;12.65;;
83176;SDS011;73074;52.006;4.704;2024-03-08T15:23:02;20.48;;;12.05;;
83176;SDS011;73074;52.006;4.704;2024-03-08T15:28:06;26.65;;;12.63;;
83176;SDS011;73074;52.006;4.704;2024-03-08T15:33:07;21.15;;;12.23;;
83176;SDS011;73074;52.006;4.704;2024-03-08T15:38:08;19.48;;;11.13;;
83176;SDS011;73074;52.006;4.704;2024-03-08T15:43:08;21.48;;;12.18;;
83176;SDS011;73074;52.006;4.704;2024-03-08T15:48:09;19.02;;;10.63;;
83176;SDS011;73074;52.006;4.704;2024-03-08T15:53:12;19.58;;;10.88;;
83176;SDS011;73074;52.006;4.704;2024-03-08T15:58:12;19.67;;;11.90;;
83176;SDS011;73074;52.006;4.704;2024-03-08T16:03:15;20.00;;;11.10;;
83176;SDS011;73074;52.006;4.704;2024-03-08T16:08:16;19.40;;;10.95;;
83176;SDS011;73074;52.006;4.704;2024-03-08T16:13:18;19.30;;;10.73;;
83176;SDS011;73074;52.006;4.704;2024-03-08T16:18:19;22.52;;;12.90;;
83176;SDS011;73074;52.006;4.704;2024-03-08T16:23:20;21.05;;;11.95;;
83176;SDS011;73074;52.006;4.704;2024-03-08T16:28:21;26.58;;;12.18;;
83176;SDS011;73074;52.006;4.704;2024-03-08T16:33:22;19.90;;;10.90;;
83176;SDS011;73074;52.006;4.704;2024-03-08T16:38:23;19.00;;;10.65;;
83176;SDS011;73074;52.006;4.704;2024-03-08T16:43:26;18.83;;;10.40;;
83176;SDS011;73074;52.006;4.704;2024-03-08T16:48:37;18.30;;;11.27;;
83176;SDS011;73074;52.006;4.704;2024-03-08T16:53:40;19.52;;;11.32;;
83176;SDS011;73074;52.006;4.704;2024-03-08T16:58:42;23.40;;;12.43;;
83176;SDS011;73074;52.006;4.704;2024-03-08T17:03:48;21.42;;;12.73;;
83176;SDS011;73074;52.006;4.704;2024-03-08T17:08:49;19.88;;;10.80;;
83176;SDS011;73074;52.006;4.704;2024-03-08T17:13:50;20.92;;;11.13;;
83176;SDS011;73074;52.006;4.704;2024-03-08T17:18:52;18.95;;;9.95;;
83176;SDS011;73074;52.006;4.704;2024-03-08T17:23:59;21.17;;;10.75;;
83176;SDS011;73074;52.006;4.704;2024-03-08T17:29:02;18.45;;;10.55;;
83176;SDS011;73074;52.006;4.704;2024-03-08T17:39:06;19.05;;;10.73;;
83176;SDS011;73074;52.006;4.704;2024-03-08T17:44:18;19.25;;;10.65;;
83176;SDS011;73074;52.006;4.704;2024-03-08T17:49:19;26.50;;;11.68;;
83176;SDS011;73074;52.006;4.704;2024-03-08T17:54:23;20.38;;;10.63;;
83176;SDS011;73074;52.006;4.704;2024-03-08T17:59:24;19.33;;;10.57;;
83176;SDS011;73074;52.006;4.704;2024-03-08T18:04:24;16.60;;;9.50;;
83176;SDS011;73074;52.006;4.704;2024-03-08T18:09:25;19.65;;;10.18;;
83176;SDS011;73074;52.006;4.704;2024-03-08T18:14:26;21.92;;;10.05;;
83176;SDS011;73074;52.006;4.704;2024-03-08T18:19:27;20.80;;;10.45;;
83176;SDS011;73074;52.006;4.704;2024-03-08T18:24:27;21.80;;;12.63;;
83176;SDS011;73074;52.006;4.704;2024-03-08T18:29:34;22.20;;;11.45;;
83176;SDS011;73074;52.006;4.704;2024-03-08T18:34:35;21.35;;;10.63;;
83176;SDS011;73074;52.006;4.704;2024-03-08T18:39:39;20.42;;;10.98;;
83176;SDS011;73074;52.006;4.704;2024-03-08T18:44:42;19.17;;;10.77;;
83176;SDS011;73074;52.006;4.704;2024-03-08T18:49:43;26.02;;;12.07;;
83176;SDS011;73074;52.006;4.704;2024-03-08T18:54:43;18.52;;;10.07;;
83176;SDS011;73074;52.006;4.704;2024-03-08T18:59:44;22.88;;;11.10;;
83176;SDS011;73074;52.006;4.704;2024-03-08T19:04:45;23.92;;;11.63;;
83176;SDS011;73074;52.006;4.704;2024-03-08T19:09:46;26.35;;;14.52;;
83176;SDS011;73074;52.006;4.704;2024-03-08T19:14:47;25.33;;;12.18;;
83176;SDS011;73074;52.006;4.704;2024-03-08T19:19:50;25.02;;;10.98;;
83176;SDS011;73074;52.006;4.704;2024-03-08T19:24:50;25.42;;;11.85;;
83176;SDS011;73074;52.006;4.704;2024-03-08T19:29:51;24.02;;;12.18;;
83176;SDS011;73074;52.006;4.704;2024-03-08T19:34:55;24.15;;;12.13;;
83176;SDS011;73074;52.006;4.704;2024-03-08T19:39:56;23.00;;;12.43;;
83176;SDS011;73074;52.006;4.704;2024-03-08T19:44:57;25.27;;;12.65;;
83176;SDS011;73074;52.006;4.704;2024-03-08T19:49:57;24.92;;;14.23;;
83176;SDS011;73074;52.006;4.704;2024-03-08T19:54:58;21.85;;;11.90;;
83176;SDS011;73074;52.006;4.704;2024-03-08T19:59:59;24.42;;;12.05;;
83176;SDS011;73074;52.006;4.704;2024-03-08T20:05:00;25.52;;;13.27;;
83176;SDS011;73074;52.006;4.704;2024-03-08T20:10:01;26.52;;;13.45;;
83176;SDS011;73074;52.006;4.704;2024-03-08T20:15:02;29.27;;;13.15;;
83176;SDS011;73074;52.006;4.704;2024-03-08T20:20:03;24.70;;;12.15;;
83176;SDS011;73074;52.006;4.704;2024-03-08T20:25:04;30.20;;;12.40;;
83176;SDS011;73074;52.006;4.704;2024-03-08T20:30:07;26.30;;;11.95;;
83176;SDS011;73074;52.006;4.704;2024-03-08T20:35:11;24.17;;;12.73;;
83176;SDS011;73074;52.006;4.704;2024-03-08T20:40:12;26.20;;;13.32;;
83176;SDS011;73074;52.006;4.704;2024-03-08T20:45:13;27.73;;;13.20;;
83176;SDS011;73074;52.006;4.704;2024-03-08T20:50:19;28.90;;;14.20;;
83176;SDS011;73074;52.006;4.704;2024-03-08T20:55:20;27.25;;;12.88;;
83176;SDS011;73074;52.006;4.704;2024-03-08T21:00:21;28.73;;;12.63;;
83176;SDS011;73074;52.006;4.704;2024-03-08T21:05:27;27.10;;;12.65;;
83176;SDS011;73074;52.006;4.704;2024-03-08T21:10:28;26.08;;;13.10;;
83176;SDS011;73074;52.006;4.704;2024-03-08T21:15:29;27.50;;;12.65;;
83176;SDS011;73074;52.006;4.704;2024-03-08T21:20:31;38.40;;;14.63;;
83176;SDS011;73074;52.006;4.704;2024-03-08T21:25:32;22.48;;;12.20;;
83176;SDS011;73074;52.006;4.704;2024-03-08T21:30:33;25.50;;;12.05;;
83176;SDS011;73074;52.006;4.704;2024-03-08T21:35:34;25.55;;;12.82;;
83176;SDS011;73074;52.006;4.704;2024-03-08T21:40:35;25.27;;;12.10;;
83176;SDS011;73074;52.006;4.704;2024-03-08T21:45:37;25.77;;;11.93;;
83176;SDS011;73074;52.006;4.704;2024-03-08T21:50:38;22.35;;;11.18;;
83176;SDS011;73074;52.006;4.704;2024-03-08T21:55:39;25.15;;;13.00;;
83176;SDS011;73074;52.006;4.704;2024-03-08T22:00:39;25.95;;;12.25;;
83176;SDS011;73074;52.006;4.704;2024-03-08T22:05:40;27.35;;;11.52;;
83176;SDS011;73074;52.006;4.704;2024-03-08T22:10:41;30.25;;;13.32;;
83176;SDS011;73074;52.006;4.704;2024-03-08T22:15:42;30.23;;;12.88;;
83176;SDS011;73074;52.006;4.704;2024-03-08T22:20:42;26.08;;;12.35;;
83176;SDS011;73074;52.006;4.704;2024-03-08T22:25:43;26.00;;;13.82;;
83176;SDS011;73074;52.006;4.704;2024-03-08T22:30:44;26.75;;;12.02;;
83176;SDS011;73074;52.006;4.704;2024-03-08T22:35:47;28.05;;;12.50;;
83176;SDS011;73074;52.006;4.704;2024-03-08T22:40:48;26.27;;;13.05;;
83176;SDS011;73074;52.006;4.704;2024-03-08T22:45:48;26.55;;;12.65;;
83176;SDS011;73074;52.006;4.704;2024-03-08T22:50:49;30.90;;;13.20;;
83176;SDS011;73074;52.006;4.704;2024-03-08T22:55:50;27.00;;;13.82;;
83176;SDS011;73074;52.006;4.704;2024-03-08T23:00:54;24.52;;;10.32;;
83176;SDS011;73074;52.006;4.704;2024-03-08T23:05:55;30.10;;;14.90;;
83176;SDS011;73074;52.006;4.704;2024-03-08T23:10:58;28.48;;;12.00;;
83176;SDS011;73074;52.006;4.704;2024-03-08T23:15:59;28.33;;;13.02;;
83176;SDS011;73074;52.006;4.704;2024-03-08T23:21:01;27.77;;;12.02;;
83176;SDS011;73074;52.006;4.704;2024-03-08T23:26:09;31.70;;;14.02;;
83176;SDS011;73074;52.006;4.704;2024-03-08T23:31:10;30.33;;;12.88;;
83176;SDS011;73074;52.006;4.704;2024-03-08T23:36:11;27.48;;;13.73;;
83176;SDS011;73074;52.006;4.704;2024-03-08T23:41:12;27.63;;;12.85;;
83176;SDS011;73074;52.006;4.704;2024-03-08T23:46:13;26.42;;;14.07;;
83176;SDS011;73074;52.006;4.704;2024-03-08T23:51:13;29.08;;;13.27;;
83176;SDS011;73074;52.006;4.704;2024-03-08T23:56:14;27.65;;;13.30;;
